createdAt,value
2023-10-24T00:00:03.513Z,99383.00
2023-10-24T00:02:30.518Z,99389.00
2023-10-24T00:04:57.216Z,99384.00
2023-10-24T00:07:24.142Z,99367.00
2023-10-24T00:09:50.909Z,99354.00
2023-10-24T00:12:17.465Z,99341.00
2023-10-24T00:14:44.343Z,99352.00
2023-10-24T00:17:10.985Z,99335.00
2023-10-24T00:19:37.632Z,99330.00
2023-10-24T00:22:04.954Z,99337.00
2023-10-24T00:24:31.527Z,99345.00
2023-10-24T00:26:59.010Z,99356.00
2023-10-24T00:29:26.319Z,99371.00
2023-10-24T00:31:53.049Z,99370.00
2023-10-24T00:34:19.792Z,99368.00
2023-10-24T00:36:46.998Z,99370.00
2023-10-24T00:39:13.782Z,99382.00
2023-10-24T00:41:40.617Z,99369.00
2023-10-24T00:44:08.547Z,99371.00
2023-10-24T00:46:37.856Z,99356.00
2023-10-24T00:49:04.716Z,99356.00
2023-10-24T00:51:31.780Z,99367.00
2023-10-24T00:53:59.210Z,99365.00
2023-10-24T00:56:26.233Z,99370.00
2023-10-24T00:58:53.384Z,99375.00
2023-10-24T01:01:20.508Z,99388.00
2023-10-24T01:03:48.298Z,99375.00
2023-10-24T01:06:19.078Z,99373.00
2023-10-24T01:08:45.738Z,99376.00
2023-10-24T01:11:12.469Z,99367.00
2023-10-24T01:13:39.602Z,99361.00
2023-10-24T01:16:06.339Z,99371.00
2023-10-24T01:18:33.022Z,99368.00
2023-10-24T01:21:00.201Z,99362.00
2023-10-24T01:23:29.906Z,99361.00
2023-10-24T01:25:57.012Z,99364.00
2023-10-24T01:28:23.907Z,99366.00
2023-10-24T01:30:51.057Z,99360.00
2023-10-24T01:33:17.653Z,99343.00
2023-10-24T01:35:44.368Z,99324.00
2023-10-24T01:38:11.513Z,99305.00
2023-10-24T01:40:38.462Z,99310.00
2023-10-24T01:43:05.409Z,99328.00
2023-10-24T01:45:34.593Z,99329.00
2023-10-24T01:48:01.469Z,99346.00
2023-10-24T01:50:28.122Z,99352.00
2023-10-24T01:52:55.182Z,99338.00
2023-10-24T01:55:22.024Z,99328.00
2023-10-24T01:57:48.602Z,99337.00
2023-10-24T02:00:15.709Z,99328.00
2023-10-24T02:02:42.677Z,99332.00
2023-10-24T02:05:09.589Z,99333.00
2023-10-24T02:07:36.955Z,99326.00
2023-10-24T02:10:04.531Z,99335.00
2023-10-24T02:12:31.124Z,99326.00
2023-10-24T02:14:58.362Z,99325.00
2023-10-24T02:17:24.984Z,99325.00
2023-10-24T02:19:53.469Z,99332.00
2023-10-24T02:22:20.886Z,99342.00
2023-10-24T02:24:47.648Z,99341.00
2023-10-24T02:27:14.187Z,99329.00
2023-10-24T02:29:40.993Z,99328.00
2023-10-24T02:32:07.629Z,99335.00
2023-10-24T02:34:34.513Z,99314.00
2023-10-24T02:37:01.501Z,99317.00
2023-10-24T02:39:28.274Z,99319.00
2023-10-24T02:41:55.033Z,99319.00
2023-10-24T02:44:22.084Z,99316.00
2023-10-24T02:46:48.860Z,99311.00
2023-10-24T02:49:16.058Z,99312.00
2023-10-24T02:51:43.187Z,99324.00
2023-10-24T02:54:09.928Z,99327.00
2023-10-24T02:56:36.711Z,99335.00
2023-10-24T02:59:03.644Z,99330.00
2023-10-24T03:01:30.491Z,99326.00
2023-10-24T03:03:57.170Z,99323.00
2023-10-24T03:06:24.355Z,99335.00
2023-10-24T03:08:51.069Z,99326.00
2023-10-24T03:11:24.776Z,99326.00
2023-10-24T03:13:55.372Z,99338.00
2023-10-24T03:16:23.130Z,99347.00
2023-10-24T03:18:50.018Z,99340.00
2023-10-24T03:21:18.155Z,99343.00
2023-10-24T03:23:47.709Z,99342.00
2023-10-24T03:26:14.469Z,99340.00
2023-10-24T03:28:41.368Z,99328.00
2023-10-24T03:31:09.133Z,99336.00
2023-10-24T03:33:35.902Z,99334.00
2023-10-24T03:36:02.922Z,99336.00
2023-10-24T03:38:30.873Z,99344.00
2023-10-24T03:40:57.617Z,99356.00
2023-10-24T03:43:24.894Z,99350.00
2023-10-24T03:45:51.731Z,99358.00
2023-10-24T03:48:18.301Z,99346.00
2023-10-24T03:50:45.094Z,99357.00
2023-10-24T03:53:11.735Z,99342.00
2023-10-24T03:55:39.206Z,99350.00
2023-10-24T03:58:06.960Z,99338.00
2023-10-24T04:00:33.685Z,99334.00
2023-10-24T04:03:01.504Z,99339.00
2023-10-24T04:05:32.354Z,99342.00
2023-10-24T04:07:58.896Z,99347.00
2023-10-24T04:10:25.801Z,99362.00
2023-10-24T04:12:52.576Z,99353.00
2023-10-24T04:15:19.490Z,99365.00
2023-10-24T04:17:46.316Z,99357.00
2023-10-24T04:20:15.597Z,99354.00
2023-10-24T04:22:43.732Z,99348.00
2023-10-24T04:25:11.420Z,99357.00
2023-10-24T04:27:38.570Z,99364.00
2023-10-24T04:30:11.089Z,99362.00
2023-10-24T04:32:37.999Z,99356.00
2023-10-24T04:35:06.696Z,99351.00
2023-10-24T04:37:33.460Z,99350.00
2023-10-24T04:40:00.295Z,99351.00
2023-10-24T04:42:27.235Z,99346.00
2023-10-24T04:44:54.670Z,99343.00
2023-10-24T04:47:21.414Z,99334.00
2023-10-24T04:49:47.934Z,99329.00
2023-10-24T04:52:14.636Z,99330.00
2023-10-24T04:54:42.105Z,99328.00
2023-10-24T04:57:08.900Z,99339.00
2023-10-24T04:59:38.468Z,99334.00
2023-10-24T05:02:05.775Z,99322.00
2023-10-24T05:04:32.459Z,99327.00
2023-10-24T05:07:00.048Z,99321.00
2023-10-24T05:09:26.819Z,99323.00
2023-10-24T05:11:53.364Z,99318.00
2023-10-24T05:14:19.953Z,99319.00
2023-10-24T05:16:46.985Z,99319.00
2023-10-24T05:19:14.402Z,99306.00
2023-10-24T05:21:40.984Z,99298.00
2023-10-24T05:24:08.173Z,99289.00
2023-10-24T05:26:36.233Z,99276.00
2023-10-24T05:29:02.927Z,99262.00
2023-10-24T05:31:29.779Z,99266.00
2023-10-24T05:33:56.569Z,99244.00
2023-10-24T05:36:23.319Z,99250.00
2023-10-24T05:38:50.241Z,99255.00
2023-10-24T05:41:16.840Z,99241.00
2023-10-24T05:43:43.667Z,99226.00
2023-10-24T05:46:10.470Z,99236.00
2023-10-24T05:48:40.141Z,99240.00
2023-10-24T05:51:10.064Z,99240.00
2023-10-24T05:53:37.278Z,99244.00
2023-10-24T05:56:04.667Z,99259.00
2023-10-24T05:58:31.486Z,99273.00
2023-10-24T06:00:58.476Z,99293.00
2023-10-24T06:03:27.736Z,99291.00
2023-10-24T06:05:54.965Z,99299.00
2023-10-24T06:08:29.486Z,99308.00
2023-10-24T06:11:01.396Z,99295.00
2023-10-24T06:13:28.252Z,99287.00
2023-10-24T06:15:54.945Z,99292.00
2023-10-24T06:18:23.653Z,99288.00
2023-10-24T06:20:52.221Z,99287.00
2023-10-24T06:23:19.032Z,99289.00
2023-10-24T06:25:45.906Z,99285.00
2023-10-24T06:28:14.766Z,99296.00
2023-10-24T06:30:42.541Z,99288.00
2023-10-24T06:33:09.320Z,99284.00
2023-10-24T06:35:36.252Z,99290.00
2023-10-24T06:38:02.915Z,99293.00
2023-10-24T06:40:29.615Z,99309.00
2023-10-24T06:42:56.709Z,99305.00
2023-10-24T06:45:23.423Z,99290.00
2023-10-24T06:47:50.207Z,99288.00
2023-10-24T06:50:19.266Z,99284.00
2023-10-24T06:52:45.888Z,99294.00
2023-10-24T06:55:12.748Z,99297.00
2023-10-24T06:57:39.531Z,99305.00
2023-10-24T07:00:07.364Z,99308.00
2023-10-24T07:02:35.337Z,99299.00
2023-10-24T07:05:02.516Z,99310.00
2023-10-24T07:07:29.376Z,99304.00
2023-10-24T07:09:56.406Z,99300.00
2023-10-24T07:12:23.324Z,99310.00
2023-10-24T07:14:54.335Z,99299.00
2023-10-24T07:17:21.029Z,99296.00
2023-10-24T07:19:48.065Z,99289.00
2023-10-24T07:22:16.092Z,99289.00
2023-10-24T07:24:44.653Z,99299.00
2023-10-24T07:27:12.184Z,99306.00
2023-10-24T07:29:38.809Z,99313.00
2023-10-24T07:32:05.784Z,99316.00
2023-10-24T07:34:34.404Z,99313.00
2023-10-24T07:37:02.016Z,99312.00
2023-10-24T07:39:28.622Z,99311.00
2023-10-24T07:41:55.479Z,99309.00
2023-10-24T07:44:22.200Z,99308.00
2023-10-24T07:46:48.763Z,99310.00
2023-10-24T07:49:15.878Z,99299.00
2023-10-24T07:51:42.664Z,99308.00
2023-10-24T07:54:12.100Z,99310.00
2023-10-24T07:56:42.372Z,99310.00
2023-10-24T07:59:09.110Z,99297.00
2023-10-24T08:01:36.062Z,99289.00
2023-10-24T08:04:03.361Z,99288.00
2023-10-24T08:06:32.217Z,99293.00
2023-10-24T08:08:59.093Z,99277.00
2023-10-24T08:11:25.905Z,99289.00
2023-10-24T08:13:52.628Z,99288.00
2023-10-24T08:16:21.888Z,99287.00
2023-10-24T08:18:49.662Z,99296.00
2023-10-24T08:21:16.247Z,99294.00
2023-10-24T08:23:42.882Z,99309.00
2023-10-24T08:26:09.687Z,99305.00
2023-10-24T08:28:37.944Z,99306.00
2023-10-24T08:31:04.550Z,99300.00
2023-10-24T08:33:31.691Z,99300.00
2023-10-24T08:35:58.576Z,99309.00
2023-10-24T08:38:25.217Z,99308.00
2023-10-24T08:40:52.571Z,99311.00
2023-10-24T08:43:28.864Z,99313.00
2023-10-24T08:45:57.156Z,99315.00
2023-10-24T08:48:23.735Z,99322.00
2023-10-24T08:50:50.468Z,99312.00
2023-10-24T08:53:17.534Z,99307.00
2023-10-24T08:55:54.354Z,99312.00
2023-10-24T08:58:22.169Z,99309.00
2023-10-24T09:00:49.135Z,99309.00
2023-10-24T09:03:18.812Z,99300.00
2023-10-24T09:05:47.021Z,99305.00
2023-10-24T09:08:16.668Z,99317.00
2023-10-24T09:10:45.419Z,99320.00
2023-10-24T09:13:12.737Z,99313.00
2023-10-24T09:15:40.514Z,99306.00
2023-10-24T09:18:07.928Z,99296.00
2023-10-24T09:20:35.401Z,99293.00
2023-10-24T09:23:08.926Z,99294.00
2023-10-24T09:25:36.205Z,99290.00
2023-10-24T09:28:17.427Z,99288.00
2023-10-24T09:30:45.143Z,99284.00
2023-10-24T09:33:12.042Z,99289.00
2023-10-24T09:35:39.345Z,99284.00
2023-10-24T09:38:09.646Z,99280.00
2023-10-24T09:40:40.375Z,99284.00
2023-10-24T09:43:22.338Z,99269.00
2023-10-24T09:45:50.980Z,99269.00
2023-10-24T09:48:18.561Z,99266.00
2023-10-24T09:50:47.952Z,99266.00
2023-10-24T09:53:14.795Z,99259.00
2023-10-24T09:55:49.248Z,99274.00
2023-10-24T09:58:19.562Z,99263.00
2023-10-24T10:00:51.071Z,99258.00
2023-10-24T10:03:18.674Z,99248.00
2023-10-24T10:05:46.152Z,99257.00
2023-10-24T10:08:17.014Z,99251.00
2023-10-24T10:10:46.801Z,99252.00
2023-10-24T10:13:15.605Z,99253.00
2023-10-24T10:15:57.090Z,99240.00
2023-10-24T10:18:40.425Z,99243.00
2023-10-24T10:21:30.998Z,99236.00
2023-10-24T10:24:31.134Z,99245.00
2023-10-24T10:27:19.056Z,99236.00
2023-10-24T10:29:52.353Z,99219.00
2023-10-24T10:32:42.292Z,99224.00
2023-10-24T10:35:15.066Z,99222.00
2023-10-24T10:37:41.965Z,99212.00
2023-10-24T10:40:20.837Z,99216.00
2023-10-24T10:42:49.358Z,99215.00
2023-10-24T10:45:42.217Z,99206.00
2023-10-24T10:48:09.779Z,99206.00
2023-10-24T10:50:40.196Z,99197.00
2023-10-24T10:53:36.850Z,99195.00
2023-10-24T10:56:26.528Z,99201.00
2023-10-24T10:59:12.960Z,99207.00
2023-10-24T11:01:53.674Z,99201.00
2023-10-24T11:04:20.683Z,99205.00
2023-10-24T11:06:52.726Z,99208.00
2023-10-24T11:09:21.612Z,99201.00
2023-10-24T11:12:00.100Z,99207.00
2023-10-24T11:14:28.644Z,99203.00
2023-10-24T11:16:56.092Z,99190.00
2023-10-24T11:19:23.998Z,99189.00
2023-10-24T11:21:52.320Z,99183.00
2023-10-24T11:24:21.940Z,99191.00
2023-10-24T11:26:57.974Z,99183.00
2023-10-24T11:29:24.830Z,99187.00
2023-10-24T11:31:54.498Z,99183.00
2023-10-24T11:34:21.310Z,99179.00
2023-10-24T11:36:48.929Z,99172.00
2023-10-24T11:39:15.751Z,99172.00
2023-10-24T11:41:44.599Z,99176.00
2023-10-24T11:44:19.806Z,99178.00
2023-10-24T11:46:46.506Z,99176.00
2023-10-24T11:49:16.639Z,99176.00
2023-10-24T11:51:45.512Z,99175.00
2023-10-24T11:54:18.585Z,99179.00
2023-10-24T11:57:23.866Z,99167.00
2023-10-24T11:59:58.813Z,99166.00
2023-10-24T12:02:26.604Z,99171.00
2023-10-24T12:04:54.422Z,99167.00
2023-10-24T12:07:24.913Z,99170.00
2023-10-24T12:09:51.583Z,99157.00
2023-10-24T12:12:18.279Z,99156.00
2023-10-24T12:14:45.466Z,99161.00
2023-10-24T12:17:12.524Z,99165.00
2023-10-24T12:19:43.363Z,99169.00
2023-10-24T12:22:10.546Z,99164.00
2023-10-24T12:24:37.127Z,99160.00
2023-10-24T12:27:04.086Z,99159.00
2023-10-24T12:29:31.428Z,99157.00
2023-10-24T12:31:58.248Z,99150.00
2023-10-24T12:34:24.987Z,99152.00
2023-10-24T12:36:53.822Z,99152.00
2023-10-24T12:39:22.438Z,99152.00
2023-10-24T12:41:49.133Z,99152.00
2023-10-24T12:44:17.151Z,99143.00
2023-10-24T12:46:44.052Z,99153.00
2023-10-24T12:49:14.268Z,99147.00
2023-10-24T12:51:43.099Z,99155.00
2023-10-24T12:54:10.300Z,99155.00
2023-10-24T12:56:37.224Z,99148.00
2023-10-24T12:59:07.631Z,99156.00
2023-10-24T13:01:34.547Z,99146.00
2023-10-24T13:04:01.529Z,99134.00
2023-10-24T13:06:28.562Z,99137.00
2023-10-24T13:08:55.527Z,99137.00
2023-10-24T13:11:22.125Z,99138.00
2023-10-24T13:13:49.330Z,99133.00
2023-10-24T13:16:17.583Z,99134.00
2023-10-24T13:18:44.520Z,99132.00
2023-10-24T13:21:11.329Z,99138.00
2023-10-24T13:23:37.921Z,99126.00
2023-10-24T13:26:04.509Z,99124.00
2023-10-24T13:28:31.347Z,99116.00
2023-10-24T13:31:11.707Z,99121.00
2023-10-24T13:34:04.784Z,99121.00
2023-10-24T13:36:33.054Z,99110.00
2023-10-24T13:39:00.032Z,99116.00
2023-10-24T13:41:28.950Z,99124.00
2023-10-24T13:43:58.811Z,99119.00
2023-10-24T13:46:27.016Z,99117.00
2023-10-24T13:48:53.732Z,99120.00
2023-10-24T13:51:21.499Z,99121.00
2023-10-24T13:53:48.806Z,99127.00
2023-10-24T13:56:16.248Z,99124.00
2023-10-24T13:58:42.982Z,99116.00
2023-10-24T14:01:10.197Z,99116.00
2023-10-24T14:03:37.231Z,99114.00
2023-10-24T14:06:04.529Z,99119.00
2023-10-24T14:08:31.794Z,99111.00
2023-10-24T14:10:58.934Z,99120.00
2023-10-24T14:13:25.905Z,99126.00
2023-10-24T14:15:54.152Z,99137.00
2023-10-24T14:18:20.752Z,99120.00
2023-10-24T14:20:47.431Z,99120.00
2023-10-24T14:23:15.233Z,99119.00
2023-10-24T14:25:42.535Z,99126.00
2023-10-24T14:28:11.910Z,99120.00
2023-10-24T14:30:38.908Z,99111.00
2023-10-24T14:33:05.674Z,99106.00
2023-10-24T14:35:32.263Z,99113.00
2023-10-24T14:37:59.040Z,99101.00
2023-10-24T14:40:25.802Z,99096.00
2023-10-24T14:42:52.360Z,99089.00
2023-10-24T14:45:19.730Z,99089.00
2023-10-24T14:47:46.602Z,99090.00
2023-10-24T14:50:15.873Z,99085.00
2023-10-24T14:52:42.947Z,99087.00
2023-10-24T14:55:14.730Z,99084.00
2023-10-24T14:57:44.822Z,99078.00
2023-10-24T15:00:12.735Z,99076.00
2023-10-24T15:02:40.342Z,99064.00
2023-10-24T15:05:09.169Z,99061.00
2023-10-24T15:07:36.232Z,99076.00
2023-10-24T15:10:05.036Z,99085.00
2023-10-24T15:12:32.100Z,99091.00
2023-10-24T15:14:59.535Z,99100.00
2023-10-24T15:17:27.042Z,99087.00
2023-10-24T15:19:54.227Z,99095.00
2023-10-24T15:22:22.063Z,99107.00
2023-10-24T15:24:48.717Z,99106.00
2023-10-24T15:27:15.284Z,99099.00
2023-10-24T15:29:45.280Z,99110.00
2023-10-24T15:32:14.404Z,99109.00
2023-10-24T15:34:41.522Z,99108.00
2023-10-24T15:37:08.985Z,99105.00
2023-10-24T15:39:36.343Z,99104.00
2023-10-24T15:42:03.384Z,99107.00
2023-10-24T15:44:30.585Z,99105.00
2023-10-24T15:46:57.672Z,99117.00
2023-10-24T15:49:24.757Z,99106.00
2023-10-24T15:51:51.642Z,99111.00
2023-10-24T15:54:18.171Z,99117.00
2023-10-24T15:56:44.798Z,99107.00
2023-10-24T15:59:14.666Z,99111.00
2023-10-24T16:01:41.715Z,99122.00
2023-10-24T16:04:08.574Z,99129.00
2023-10-24T16:06:35.636Z,99121.00
2023-10-24T16:09:02.209Z,99123.00
2023-10-24T16:11:29.031Z,99122.00
2023-10-24T16:13:58.002Z,99121.00
2023-10-24T16:16:25.848Z,99126.00
2023-10-24T16:18:53.481Z,99130.00
2023-10-24T16:21:20.292Z,99133.00
2023-10-24T16:23:47.172Z,99136.00
2023-10-24T16:26:14.244Z,99135.00
2023-10-24T16:28:41.810Z,99139.00
2023-10-24T16:31:08.502Z,99140.00
2023-10-24T16:33:35.779Z,99142.00
2023-10-24T16:36:04.677Z,99145.00
2023-10-24T16:38:32.923Z,99147.00
2023-10-24T16:41:00.130Z,99152.00
2023-10-24T16:43:28.134Z,99149.00
2023-10-24T16:45:54.741Z,99152.00
2023-10-24T16:48:21.889Z,99158.00
2023-10-24T16:50:54.496Z,99160.00
2023-10-24T16:53:21.149Z,99159.00
2023-10-24T16:55:49.789Z,99156.00
2023-10-24T16:58:16.803Z,99166.00
2023-10-24T17:00:44.289Z,99175.00
2023-10-24T17:03:11.029Z,99172.00
2023-10-24T17:05:42.393Z,99180.00
2023-10-24T17:08:09.637Z,99180.00
2023-10-24T17:10:38.287Z,99179.00
2023-10-24T17:13:05.288Z,99187.00
2023-10-24T17:15:31.971Z,99181.00
2023-10-24T17:17:58.794Z,99193.00
2023-10-24T17:20:25.853Z,99189.00
2023-10-24T17:22:52.557Z,99189.00
2023-10-24T17:25:19.499Z,99189.00
2023-10-24T17:27:46.432Z,99184.00
2023-10-24T17:30:14.412Z,99185.00
2023-10-24T17:32:41.015Z,99190.00
2023-10-24T17:35:08.013Z,99185.00
2023-10-24T17:37:37.023Z,99195.00
2023-10-24T17:40:08.160Z,99196.00
2023-10-24T17:42:37.286Z,99194.00
2023-10-24T17:45:07.393Z,99192.00
2023-10-24T17:47:34.342Z,99197.00
2023-10-24T17:50:02.163Z,99190.00
2023-10-24T17:52:28.759Z,99193.00
2023-10-24T17:54:56.551Z,99195.00
2023-10-24T17:57:23.565Z,99200.00
2023-10-24T17:59:50.120Z,99200.00
2023-10-24T18:02:16.837Z,99196.00
2023-10-24T18:04:44.183Z,99196.00
2023-10-24T18:09:40.946Z,99193.00
2023-10-24T18:12:08.661Z,99197.00
2023-10-24T18:14:35.753Z,99205.00
2023-10-24T18:17:03.944Z,99200.00
2023-10-24T18:19:31.430Z,99199.00
2023-10-24T18:21:57.941Z,99204.00
2023-10-24T18:24:24.584Z,99206.00
2023-10-24T18:26:51.477Z,99203.00
2023-10-24T18:29:18.310Z,99199.00
2023-10-24T18:31:45.043Z,99201.00
2023-10-24T18:34:11.976Z,99209.00
2023-10-24T18:36:38.516Z,99202.00
2023-10-24T18:39:08.745Z,99199.00
2023-10-24T18:41:38.731Z,99197.00
2023-10-24T18:44:09.299Z,99195.00
2023-10-24T18:46:36.570Z,99201.00
2023-10-24T18:49:03.546Z,99201.00
2023-10-24T18:51:30.387Z,99210.00
2023-10-24T18:53:57.588Z,99216.00
2023-10-24T18:56:26.093Z,99222.00
2023-10-24T18:59:07.321Z,99228.00
2023-10-24T19:01:34.347Z,99222.00
2023-10-24T19:04:08.555Z,99229.00
2023-10-24T19:06:36.216Z,99226.00
2023-10-24T19:09:03.713Z,99234.00
2023-10-24T19:11:33.975Z,99229.00
2023-10-24T19:14:02.515Z,99239.00
2023-10-24T19:16:31.542Z,99227.00
2023-10-24T19:18:59.773Z,99241.00
2023-10-24T19:21:40.352Z,99238.00
2023-10-24T19:24:07.713Z,99247.00
2023-10-24T19:26:38.277Z,99247.00
2023-10-24T19:29:11.158Z,99247.00
2023-10-24T19:31:43.562Z,99261.00
2023-10-24T19:34:12.885Z,99259.00
2023-10-24T19:36:41.529Z,99256.00
2023-10-24T19:39:11.338Z,99261.00
2023-10-24T19:41:39.370Z,99257.00
2023-10-24T19:44:10.263Z,99266.00
2023-10-24T19:46:46.140Z,99275.00
2023-10-24T19:49:13.783Z,99270.00
2023-10-24T19:51:43.773Z,99278.00
2023-10-24T19:54:12.562Z,99284.00
2023-10-24T19:56:42.100Z,99286.00
2023-10-24T19:59:11.206Z,99279.00
2023-10-24T20:01:38.488Z,99283.00
2023-10-24T20:04:05.960Z,99274.00
2023-10-24T20:06:36.885Z,99283.00
2023-10-24T20:09:07.215Z,99279.00
2023-10-24T20:12:36.961Z,99285.00
2023-10-24T20:14:22.646Z,99281.00
2023-10-24T20:16:54.922Z,99284.00
2023-10-24T20:19:21.883Z,99293.00
2023-10-24T20:21:51.699Z,99289.00
2023-10-24T20:24:18.972Z,99282.00
2023-10-24T20:26:50.089Z,99286.00
2023-10-24T20:29:16.642Z,99294.00
2023-10-24T20:31:45.504Z,99293.00
2023-10-24T20:34:15.456Z,99288.00
2023-10-24T20:36:42.489Z,99280.00
2023-10-24T20:39:14.983Z,99271.00
2023-10-24T20:41:45.388Z,99277.00
2023-10-24T20:44:12.537Z,99282.00
2023-10-24T20:46:39.870Z,99280.00
2023-10-24T20:49:07.570Z,99278.00
2023-10-24T20:51:34.768Z,99281.00
2023-10-24T20:54:05.922Z,99276.00
2023-10-24T20:56:32.638Z,99279.00
2023-10-24T20:59:00.369Z,99280.00
2023-10-24T21:01:27.427Z,99287.00
2023-10-24T21:03:57.445Z,99289.00
2023-10-24T21:06:25.164Z,99294.00
2023-10-24T21:08:52.335Z,99295.00
2023-10-24T21:11:19.065Z,99292.00
2023-10-24T21:13:46.028Z,99298.00
2023-10-24T21:16:13.281Z,99300.00
2023-10-24T21:18:39.982Z,99295.00
2023-10-24T21:21:09.703Z,99300.00
2023-10-24T21:23:36.635Z,99308.00
2023-10-24T21:26:03.558Z,99294.00
2023-10-24T21:28:30.807Z,99291.00
2023-10-24T21:30:57.667Z,99294.00
2023-10-24T21:33:27.645Z,99299.00
2023-10-24T21:35:55.139Z,99298.00
2023-10-24T21:38:22.013Z,99308.00
2023-10-24T21:40:55.525Z,99297.00
2023-10-24T21:43:24.724Z,99306.00
2023-10-24T21:45:53.661Z,99299.00
2023-10-24T21:48:20.396Z,99299.00
2023-10-24T21:50:47.269Z,99309.00
2023-10-24T21:53:13.943Z,99307.00
2023-10-24T21:55:40.449Z,99310.00
2023-10-24T21:58:07.362Z,99306.00
2023-10-24T22:00:34.878Z,99296.00
2023-10-24T22:03:02.337Z,99298.00
2023-10-24T22:05:29.324Z,99293.00
2023-10-24T22:07:56.076Z,99283.00
2023-10-24T22:10:22.949Z,99293.00
2023-10-24T22:12:49.876Z,99289.00
2023-10-24T22:15:16.801Z,99289.00
2023-10-24T22:17:43.796Z,99288.00
2023-10-24T22:20:11.490Z,99274.00
2023-10-24T22:22:39.636Z,99291.00
2023-10-24T22:25:06.774Z,99294.00
2023-10-24T22:27:33.665Z,99289.00
2023-10-24T22:30:00.678Z,99292.00
2023-10-24T22:32:27.358Z,99292.00
2023-10-24T22:34:54.164Z,99291.00
2023-10-24T22:37:21.386Z,99295.00
2023-10-24T22:39:48.303Z,99296.00
2023-10-24T22:42:15.476Z,99294.00
2023-10-24T22:44:43.787Z,99291.00
2023-10-24T22:47:10.664Z,99295.00
2023-10-24T22:49:39.171Z,99295.00
2023-10-24T22:52:06.055Z,99284.00
2023-10-24T22:54:32.801Z,99294.00
2023-10-24T22:56:59.678Z,99291.00
2023-10-24T22:59:26.480Z,99290.00
2023-10-24T23:01:53.358Z,99293.00
2023-10-24T23:04:20.653Z,99290.00
2023-10-24T23:06:47.378Z,99290.00
2023-10-24T23:09:14.011Z,99294.00
2023-10-24T23:11:41.222Z,99288.00
2023-10-24T23:14:07.990Z,99294.00
2023-10-24T23:16:34.958Z,99299.00
2023-10-24T23:19:02.175Z,99308.00
2023-10-24T23:21:29.189Z,99295.00
2023-10-24T23:23:55.867Z,99307.00
2023-10-24T23:26:22.675Z,99307.00
2023-10-24T23:28:49.285Z,99308.00
2023-10-24T23:31:16.047Z,99297.00
2023-10-24T23:33:45.804Z,99320.00
2023-10-24T23:36:12.759Z,99296.00
2023-10-24T23:38:39.355Z,99304.00
2023-10-24T23:41:06.249Z,99305.00
2023-10-24T23:43:33.866Z,99297.00
2023-10-24T23:46:00.828Z,99298.00
2023-10-24T23:48:27.702Z,99300.00
2023-10-24T23:50:54.298Z,99294.00
2023-10-24T23:53:20.995Z,99298.00
2023-10-24T23:55:48.040Z,99291.00
2023-10-24T23:58:15.832Z,99282.00
